sensor_id;sensor_type;location;lat;lon;timestamp;P1;durP1;ratioP1;P2;durP2;ratioP2
8952;SDS011;4511;50.890;8.054;2023-11-18T00:01:06;175.23;;;16.33;;
8952;SDS011;4511;50.890;8.054;2023-11-18T00:03:33;235.43;;;19.10;;
8952;SDS011;4511;50.890;8.054;2023-11-18T00:06:00;208.27;;;17.97;;
8952;SDS011;4511;50.890;8.054;2023-11-18T00:08:28;443.90;;;24.00;;
8952;SDS011;4511;50.890;8.054;2023-11-18T00:10:56;150.47;;;13.53;;
8952;SDS011;4511;50.890;8.054;2023-11-18T00:13:22;122.57;;;13.13;;
8952;SDS011;4511;50.890;8.054;2023-11-18T00:15:52;146.63;;;14.20;;
8952;SDS011;4511;50.890;8.054;2023-11-18T00:18:19;87.00;;;12.27;;
8952;SDS011;4511;50.890;8.054;2023-11-18T00:20:46;127.03;;;12.90;;
8952;SDS011;4511;50.890;8.054;2023-11-18T00:23:15;58.33;;;12.00;;
8952;SDS011;4511;50.890;8.054;2023-11-18T00:25:42;133.63;;;13.33;;
8952;SDS011;4511;50.890;8.054;2023-11-18T00:28:10;154.83;;;12.40;;
8952;SDS011;4511;50.890;8.054;2023-11-18T00:30:37;177.27;;;14.30;;
8952;SDS011;4511;50.890;8.054;2023-11-18T00:33:05;141.80;;;14.60;;
8952;SDS011;4511;50.890;8.054;2023-11-18T00:35:31;182.87;;;14.50;;
8952;SDS011;4511;50.890;8.054;2023-11-18T00:37:59;73.40;;;11.93;;
8952;SDS011;4511;50.890;8.054;2023-11-18T00:40:25;177.27;;;13.33;;
8952;SDS011;4511;50.890;8.054;2023-11-18T00:42:54;227.80;;;14.70;;
8952;SDS011;4511;50.890;8.054;2023-11-18T00:45:21;159.13;;;13.67;;
8952;SDS011;4511;50.890;8.054;2023-11-18T00:47:48;118.50;;;12.27;;
8952;SDS011;4511;50.890;8.054;2023-11-18T00:50:16;114.10;;;11.87;;
8952;SDS011;4511;50.890;8.054;2023-11-18T00:52:42;79.30;;;11.90;;
8952;SDS011;4511;50.890;8.054;2023-11-18T00:55:13;179.33;;;15.90;;
8952;SDS011;4511;50.890;8.054;2023-11-18T00:57:42;106.70;;;12.80;;
8952;SDS011;4511;50.890;8.054;2023-11-18T01:00:11;105.40;;;12.23;;
8952;SDS011;4511;50.890;8.054;2023-11-18T01:02:41;61.20;;;11.37;;
8952;SDS011;4511;50.890;8.054;2023-11-18T01:05:08;74.90;;;11.50;;
8952;SDS011;4511;50.890;8.054;2023-11-18T01:07:37;96.17;;;12.47;;
8952;SDS011;4511;50.890;8.054;2023-11-18T01:10:05;69.77;;;11.50;;
8952;SDS011;4511;50.890;8.054;2023-11-18T01:12:35;133.87;;;13.67;;
8952;SDS011;4511;50.890;8.054;2023-11-18T01:15:01;90.43;;;12.63;;
8952;SDS011;4511;50.890;8.054;2023-11-18T01:17:28;67.50;;;10.90;;
8952;SDS011;4511;50.890;8.054;2023-11-18T01:19:56;89.57;;;11.67;;
8952;SDS011;4511;50.890;8.054;2023-11-18T01:22:23;164.53;;;13.60;;
8952;SDS011;4511;50.890;8.054;2023-11-18T01:24:51;213.60;;;14.53;;
8952;SDS011;4511;50.890;8.054;2023-11-18T01:27:18;137.80;;;12.83;;
8952;SDS011;4511;50.890;8.054;2023-11-18T01:29:46;101.17;;;11.83;;
8952;SDS011;4511;50.890;8.054;2023-11-18T01:32:12;96.10;;;11.07;;
8952;SDS011;4511;50.890;8.054;2023-11-18T01:34:39;186.60;;;13.93;;
8952;SDS011;4511;50.890;8.054;2023-11-18T01:37:08;59.63;;;9.43;;
8952;SDS011;4511;50.890;8.054;2023-11-18T01:39:35;54.87;;;9.63;;
8952;SDS011;4511;50.890;8.054;2023-11-18T01:42:04;99.63;;;11.40;;
8952;SDS011;4511;50.890;8.054;2023-11-18T01:44:31;74.50;;;10.43;;
8952;SDS011;4511;50.890;8.054;2023-11-18T01:47:00;85.43;;;11.27;;
8952;SDS011;4511;50.890;8.054;2023-11-18T01:49:30;101.57;;;11.30;;
8952;SDS011;4511;50.890;8.054;2023-11-18T01:51:58;22.90;;;8.60;;
8952;SDS011;4511;50.890;8.054;2023-11-18T01:54:26;63.00;;;10.27;;
8952;SDS011;4511;50.890;8.054;2023-11-18T01:56:53;41.83;;;9.23;;
8952;SDS011;4511;50.890;8.054;2023-11-18T01:59:22;75.93;;;10.43;;
8952;SDS011;4511;50.890;8.054;2023-11-18T02:01:51;92.93;;;10.13;;
8952;SDS011;4511;50.890;8.054;2023-11-18T02:04:23;56.60;;;10.07;;
8952;SDS011;4511;50.890;8.054;2023-11-18T02:06:50;92.67;;;10.40;;
8952;SDS011;4511;50.890;8.054;2023-11-18T02:09:18;54.50;;;9.63;;
8952;SDS011;4511;50.890;8.054;2023-11-18T02:11:53;55.90;;;9.63;;
8952;SDS011;4511;50.890;8.054;2023-11-18T02:14:24;45.47;;;8.47;;
8952;SDS011;4511;50.890;8.054;2023-11-18T02:16:55;17.13;;;8.57;;
8952;SDS011;4511;50.890;8.054;2023-11-18T02:19:25;23.97;;;7.80;;
8952;SDS011;4511;50.890;8.054;2023-11-18T02:21:55;22.87;;;8.73;;
8952;SDS011;4511;50.890;8.054;2023-11-18T02:24:26;12.43;;;8.13;;
8952;SDS011;4511;50.890;8.054;2023-11-18T02:26:57;25.00;;;8.60;;
8952;SDS011;4511;50.890;8.054;2023-11-18T02:29:25;77.37;;;9.40;;
8952;SDS011;4511;50.890;8.054;2023-11-18T02:31:57;99.77;;;10.53;;
8952;SDS011;4511;50.890;8.054;2023-11-18T02:34:30;169.03;;;15.63;;
8952;SDS011;4511;50.890;8.054;2023-11-18T02:36:59;26.27;;;8.93;;
8952;SDS011;4511;50.890;8.054;2023-11-18T02:39:32;35.47;;;8.67;;
8952;SDS011;4511;50.890;8.054;2023-11-18T02:42:05;31.53;;;8.60;;
8952;SDS011;4511;50.890;8.054;2023-11-18T02:44:34;44.37;;;9.50;;
8952;SDS011;4511;50.890;8.054;2023-11-18T02:47:01;53.40;;;9.37;;
8952;SDS011;4511;50.890;8.054;2023-11-18T02:49:30;54.87;;;10.00;;
8952;SDS011;4511;50.890;8.054;2023-11-18T02:51:57;354.87;;;18.13;;
8952;SDS011;4511;50.890;8.054;2023-11-18T02:54:23;393.67;;;18.37;;
8952;SDS011;4511;50.890;8.054;2023-11-18T02:56:51;141.90;;;12.57;;
8952;SDS011;4511;50.890;8.054;2023-11-18T02:59:19;390.50;;;19.90;;
8952;SDS011;4511;50.890;8.054;2023-11-18T03:01:46;141.23;;;13.27;;
8952;SDS011;4511;50.890;8.054;2023-11-18T03:04:12;372.17;;;19.60;;
8952;SDS011;4511;50.890;8.054;2023-11-18T03:06:40;167.50;;;14.13;;
8952;SDS011;4511;50.890;8.054;2023-11-18T03:09:06;115.87;;;11.93;;
8952;SDS011;4511;50.890;8.054;2023-11-18T03:11:35;143.53;;;12.70;;
8952;SDS011;4511;50.890;8.054;2023-11-18T03:14:01;289.77;;;16.40;;
8952;SDS011;4511;50.890;8.054;2023-11-18T03:16:31;235.60;;;15.30;;
8952;SDS011;4511;50.890;8.054;2023-11-18T03:18:58;467.13;;;22.13;;
8952;SDS011;4511;50.890;8.054;2023-11-18T03:21:26;116.30;;;12.00;;
8952;SDS011;4511;50.890;8.054;2023-11-18T03:23:53;92.37;;;11.27;;
8952;SDS011;4511;50.890;8.054;2023-11-18T03:26:20;302.30;;;18.47;;
8952;SDS011;4511;50.890;8.054;2023-11-18T03:28:46;106.13;;;11.90;;
8952;SDS011;4511;50.890;8.054;2023-11-18T03:31:13;132.03;;;12.20;;
8952;SDS011;4511;50.890;8.054;2023-11-18T03:33:42;144.17;;;13.80;;
8952;SDS011;4511;50.890;8.054;2023-11-18T03:36:09;60.47;;;10.97;;
8952;SDS011;4511;50.890;8.054;2023-11-18T03:38:37;107.50;;;12.07;;
8952;SDS011;4511;50.890;8.054;2023-11-18T03:41:04;171.30;;;14.10;;
8952;SDS011;4511;50.890;8.054;2023-11-18T03:43:33;109.20;;;11.37;;
8952;SDS011;4511;50.890;8.054;2023-11-18T03:46:00;85.10;;;10.53;;
8952;SDS011;4511;50.890;8.054;2023-11-18T03:48:26;132.13;;;12.90;;
8952;SDS011;4511;50.890;8.054;2023-11-18T03:50:54;121.33;;;11.40;;
8952;SDS011;4511;50.890;8.054;2023-11-18T03:53:21;59.30;;;9.70;;
8952;SDS011;4511;50.890;8.054;2023-11-18T03:55:48;71.60;;;10.20;;
8952;SDS011;4511;50.890;8.054;2023-11-18T03:58:16;33.37;;;8.70;;
8952;SDS011;4511;50.890;8.054;2023-11-18T04:00:43;40.80;;;9.03;;
8952;SDS011;4511;50.890;8.054;2023-11-18T04:03:10;16.23;;;7.97;;
8952;SDS011;4511;50.890;8.054;2023-11-18T04:05:37;46.27;;;9.10;;
8952;SDS011;4511;50.890;8.054;2023-11-18T04:08:05;155.90;;;12.03;;
8952;SDS011;4511;50.890;8.054;2023-11-18T04:10:32;33.27;;;8.77;;
8952;SDS011;4511;50.890;8.054;2023-11-18T04:12:59;40.50;;;9.67;;
8952;SDS011;4511;50.890;8.054;2023-11-18T04:15:26;26.20;;;8.93;;
8952;SDS011;4511;50.890;8.054;2023-11-18T04:17:53;33.37;;;10.00;;
8952;SDS011;4511;50.890;8.054;2023-11-18T04:20:20;13.93;;;8.47;;
8952;SDS011;4511;50.890;8.054;2023-11-18T04:22:47;13.17;;;7.33;;
8952;SDS011;4511;50.890;8.054;2023-11-18T04:25:15;10.10;;;8.07;;
8952;SDS011;4511;50.890;8.054;2023-11-18T04:27:41;13.57;;;7.63;;
8952;SDS011;4511;50.890;8.054;2023-11-18T04:30:08;13.30;;;8.07;;
8952;SDS011;4511;50.890;8.054;2023-11-18T04:32:37;36.63;;;9.03;;
8952;SDS011;4511;50.890;8.054;2023-11-18T04:35:07;29.50;;;8.20;;
8952;SDS011;4511;50.890;8.054;2023-11-18T04:37:37;13.57;;;7.90;;
8952;SDS011;4511;50.890;8.054;2023-11-18T04:40:08;12.03;;;7.83;;
8952;SDS011;4511;50.890;8.054;2023-11-18T04:42:37;11.20;;;8.67;;
8952;SDS011;4511;50.890;8.054;2023-11-18T04:45:04;10.00;;;7.37;;
8952;SDS011;4511;50.890;8.054;2023-11-18T04:47:31;9.30;;;7.30;;
8952;SDS011;4511;50.890;8.054;2023-11-18T04:49:57;18.40;;;8.07;;
8952;SDS011;4511;50.890;8.054;2023-11-18T04:52:24;15.43;;;8.10;;
8952;SDS011;4511;50.890;8.054;2023-11-18T04:54:51;14.37;;;7.97;;
8952;SDS011;4511;50.890;8.054;2023-11-18T04:57:18;14.97;;;8.60;;
8952;SDS011;4511;50.890;8.054;2023-11-18T04:59:46;10.40;;;7.67;;
8952;SDS011;4511;50.890;8.054;2023-11-18T05:02:14;13.03;;;7.97;;
8952;SDS011;4511;50.890;8.054;2023-11-18T05:04:41;10.17;;;8.03;;
8952;SDS011;4511;50.890;8.054;2023-11-18T05:07:07;10.83;;;7.87;;
8952;SDS011;4511;50.890;8.054;2023-11-18T05:09:34;14.70;;;8.70;;
8952;SDS011;4511;50.890;8.054;2023-11-18T05:12:02;12.17;;;8.00;;
8952;SDS011;4511;50.890;8.054;2023-11-18T05:14:29;11.87;;;8.23;;
8952;SDS011;4511;50.890;8.054;2023-11-18T05:16:58;10.70;;;7.80;;
8952;SDS011;4511;50.890;8.054;2023-11-18T05:19:25;10.10;;;7.47;;
8952;SDS011;4511;50.890;8.054;2023-11-18T05:21:52;10.30;;;8.17;;
8952;SDS011;4511;50.890;8.054;2023-11-18T05:24:19;10.03;;;7.27;;
8952;SDS011;4511;50.890;8.054;2023-11-18T05:26:45;10.37;;;7.97;;
8952;SDS011;4511;50.890;8.054;2023-11-18T05:29:12;10.73;;;8.20;;
8952;SDS011;4511;50.890;8.054;2023-11-18T05:31:41;10.57;;;7.87;;
8952;SDS011;4511;50.890;8.054;2023-11-18T05:34:10;9.93;;;7.80;;
8952;SDS011;4511;50.890;8.054;2023-11-18T05:36:37;9.73;;;7.93;;
8952;SDS011;4511;50.890;8.054;2023-11-18T05:39:05;10.17;;;7.37;;
8952;SDS011;4511;50.890;8.054;2023-11-18T05:41:34;7.87;;;6.53;;
8952;SDS011;4511;50.890;8.054;2023-11-18T05:44:04;10.43;;;7.30;;
8952;SDS011;4511;50.890;8.054;2023-11-18T05:46:33;10.87;;;8.60;;
8952;SDS011;4511;50.890;8.054;2023-11-18T05:49:01;10.97;;;8.43;;
8952;SDS011;4511;50.890;8.054;2023-11-18T05:51:33;10.20;;;7.93;;
8952;SDS011;4511;50.890;8.054;2023-11-18T05:54:00;8.37;;;7.37;;
8952;SDS011;4511;50.890;8.054;2023-11-18T05:56:27;11.13;;;7.87;;
8952;SDS011;4511;50.890;8.054;2023-11-18T05:58:54;11.40;;;8.17;;
8952;SDS011;4511;50.890;8.054;2023-11-18T06:01:21;9.73;;;8.13;;
8952;SDS011;4511;50.890;8.054;2023-11-18T06:03:48;9.43;;;8.00;;
8952;SDS011;4511;50.890;8.054;2023-11-18T06:06:15;10.47;;;8.40;;
8952;SDS011;4511;50.890;8.054;2023-11-18T06:08:44;9.03;;;7.73;;
8952;SDS011;4511;50.890;8.054;2023-11-18T06:11:12;10.50;;;8.80;;
8952;SDS011;4511;50.890;8.054;2023-11-18T06:13:40;11.03;;;8.17;;
8952;SDS011;4511;50.890;8.054;2023-11-18T06:16:14;8.87;;;7.70;;
8952;SDS011;4511;50.890;8.054;2023-11-18T06:18:41;8.80;;;7.07;;
8952;SDS011;4511;50.890;8.054;2023-11-18T06:21:10;11.90;;;7.60;;
8952;SDS011;4511;50.890;8.054;2023-11-18T06:23:38;9.07;;;7.70;;
8952;SDS011;4511;50.890;8.054;2023-11-18T06:26:06;8.70;;;7.77;;
8952;SDS011;4511;50.890;8.054;2023-11-18T06:28:35;8.77;;;7.30;;
8952;SDS011;4511;50.890;8.054;2023-11-18T06:31:03;11.43;;;8.03;;
8952;SDS011;4511;50.890;8.054;2023-11-18T06:33:35;8.23;;;7.23;;
8952;SDS011;4511;50.890;8.054;2023-11-18T06:36:03;11.40;;;7.70;;
8952;SDS011;4511;50.890;8.054;2023-11-18T06:38:30;8.37;;;7.37;;
8952;SDS011;4511;50.890;8.054;2023-11-18T06:40:59;9.57;;;7.37;;
8952;SDS011;4511;50.890;8.054;2023-11-18T06:43:29;13.23;;;8.63;;
8952;SDS011;4511;50.890;8.054;2023-11-18T06:46:07;9.67;;;7.83;;
8952;SDS011;4511;50.890;8.054;2023-11-18T06:48:37;9.67;;;7.33;;
8952;SDS011;4511;50.890;8.054;2023-11-18T06:51:03;9.37;;;7.50;;
8952;SDS011;4511;50.890;8.054;2023-11-18T06:53:33;8.47;;;7.13;;
8952;SDS011;4511;50.890;8.054;2023-11-18T06:55:59;10.73;;;7.67;;
8952;SDS011;4511;50.890;8.054;2023-11-18T06:58:26;11.43;;;8.50;;
8952;SDS011;4511;50.890;8.054;2023-11-18T07:00:54;9.23;;;7.63;;
8952;SDS011;4511;50.890;8.054;2023-11-18T07:03:21;8.67;;;7.77;;
8952;SDS011;4511;50.890;8.054;2023-11-18T07:05:48;11.10;;;8.03;;
8952;SDS011;4511;50.890;8.054;2023-11-18T07:08:14;11.13;;;8.60;;
8952;SDS011;4511;50.890;8.054;2023-11-18T07:10:41;12.53;;;8.90;;
8952;SDS011;4511;50.890;8.054;2023-11-18T07:13:08;10.10;;;7.80;;
8952;SDS011;4511;50.890;8.054;2023-11-18T07:15:35;9.07;;;8.00;;
8952;SDS011;4511;50.890;8.054;2023-11-18T07:18:04;11.13;;;8.80;;
8952;SDS011;4511;50.890;8.054;2023-11-18T07:20:31;10.80;;;8.63;;
8952;SDS011;4511;50.890;8.054;2023-11-18T07:22:58;10.13;;;8.43;;
8952;SDS011;4511;50.890;8.054;2023-11-18T07:25:25;14.53;;;8.70;;
8952;SDS011;4511;50.890;8.054;2023-11-18T07:27:52;11.57;;;8.43;;
8952;SDS011;4511;50.890;8.054;2023-11-18T07:30:20;10.43;;;8.40;;
8952;SDS011;4511;50.890;8.054;2023-11-18T07:32:50;9.57;;;8.00;;
8952;SDS011;4511;50.890;8.054;2023-11-18T07:35:18;12.63;;;8.67;;
8952;SDS011;4511;50.890;8.054;2023-11-18T07:37:45;9.97;;;8.27;;
8952;SDS011;4511;50.890;8.054;2023-11-18T07:40:12;10.50;;;8.23;;
8952;SDS011;4511;50.890;8.054;2023-11-18T07:42:47;10.10;;;8.20;;
8952;SDS011;4511;50.890;8.054;2023-11-18T07:45:14;11.43;;;8.90;;
8952;SDS011;4511;50.890;8.054;2023-11-18T07:47:43;12.47;;;8.70;;
8952;SDS011;4511;50.890;8.054;2023-11-18T07:50:10;12.43;;;9.03;;
8952;SDS011;4511;50.890;8.054;2023-11-18T07:52:39;11.27;;;9.17;;
8952;SDS011;4511;50.890;8.054;2023-11-18T07:55:07;13.67;;;9.70;;
8952;SDS011;4511;50.890;8.054;2023-11-18T07:57:38;13.53;;;9.53;;
8952;SDS011;4511;50.890;8.054;2023-11-18T08:00:05;12.47;;;9.83;;
8952;SDS011;4511;50.890;8.054;2023-11-18T08:02:34;13.60;;;10.00;;
8952;SDS011;4511;50.890;8.054;2023-11-18T08:05:02;11.73;;;9.37;;
8952;SDS011;4511;50.890;8.054;2023-11-18T08:07:31;12.73;;;9.77;;
8952;SDS011;4511;50.890;8.054;2023-11-18T08:10:00;11.90;;;10.17;;
8952;SDS011;4511;50.890;8.054;2023-11-18T08:12:29;10.80;;;9.33;;
8952;SDS011;4511;50.890;8.054;2023-11-18T08:14:56;12.60;;;9.43;;
8952;SDS011;4511;50.890;8.054;2023-11-18T08:17:23;12.03;;;9.63;;
8952;SDS011;4511;50.890;8.054;2023-11-18T08:19:50;12.07;;;10.13;;
8952;SDS011;4511;50.890;8.054;2023-11-18T08:22:18;13.77;;;10.50;;
8952;SDS011;4511;50.890;8.054;2023-11-18T08:24:48;13.87;;;9.23;;
8952;SDS011;4511;50.890;8.054;2023-11-18T08:27:16;11.60;;;9.57;;
8952;SDS011;4511;50.890;8.054;2023-11-18T08:29:43;11.93;;;8.80;;
8952;SDS011;4511;50.890;8.054;2023-11-18T08:32:11;10.87;;;9.40;;
8952;SDS011;4511;50.890;8.054;2023-11-18T08:34:38;13.10;;;9.90;;
8952;SDS011;4511;50.890;8.054;2023-11-18T08:37:05;14.47;;;10.03;;
8952;SDS011;4511;50.890;8.054;2023-11-18T08:39:32;10.60;;;9.20;;
8952;SDS011;4511;50.890;8.054;2023-11-18T08:42:00;10.50;;;8.53;;
8952;SDS011;4511;50.890;8.054;2023-11-18T08:44:28;11.10;;;8.83;;
8952;SDS011;4511;50.890;8.054;2023-11-18T08:46:57;11.03;;;8.87;;
8952;SDS011;4511;50.890;8.054;2023-11-18T08:49:24;10.83;;;8.63;;
8952;SDS011;4511;50.890;8.054;2023-11-18T08:51:54;10.53;;;9.00;;
8952;SDS011;4511;50.890;8.054;2023-11-18T08:54:23;11.10;;;9.30;;
8952;SDS011;4511;50.890;8.054;2023-11-18T08:57:01;10.70;;;9.40;;
8952;SDS011;4511;50.890;8.054;2023-11-18T08:59:30;10.50;;;8.80;;
8952;SDS011;4511;50.890;8.054;2023-11-18T09:01:57;11.20;;;8.73;;
8952;SDS011;4511;50.890;8.054;2023-11-18T09:04:25;8.93;;;7.47;;
8952;SDS011;4511;50.890;8.054;2023-11-18T09:06:52;10.43;;;8.33;;
8952;SDS011;4511;50.890;8.054;2023-11-18T09:09:25;10.30;;;9.20;;
8952;SDS011;4511;50.890;8.054;2023-11-18T09:11:53;10.60;;;8.00;;
8952;SDS011;4511;50.890;8.054;2023-11-18T09:14:21;10.23;;;8.03;;
8952;SDS011;4511;50.890;8.054;2023-11-18T09:16:50;9.00;;;7.43;;
8952;SDS011;4511;50.890;8.054;2023-11-18T09:19:20;9.03;;;7.43;;
8952;SDS011;4511;50.890;8.054;2023-11-18T09:21:46;9.93;;;7.37;;
8952;SDS011;4511;50.890;8.054;2023-11-18T09:24:13;8.90;;;8.00;;
8952;SDS011;4511;50.890;8.054;2023-11-18T09:26:44;8.80;;;7.53;;
8952;SDS011;4511;50.890;8.054;2023-11-18T09:29:15;11.40;;;7.40;;
8952;SDS011;4511;50.890;8.054;2023-11-18T09:31:43;9.33;;;8.43;;
8952;SDS011;4511;50.890;8.054;2023-11-18T09:34:14;14.03;;;8.33;;
8952;SDS011;4511;50.890;8.054;2023-11-18T09:36:42;13.87;;;8.00;;
8952;SDS011;4511;50.890;8.054;2023-11-18T09:39:09;8.70;;;6.60;;
8952;SDS011;4511;50.890;8.054;2023-11-18T09:41:41;12.13;;;7.33;;
8952;SDS011;4511;50.890;8.054;2023-11-18T09:44:08;10.13;;;7.73;;
8952;SDS011;4511;50.890;8.054;2023-11-18T09:46:37;8.77;;;6.73;;
8952;SDS011;4511;50.890;8.054;2023-11-18T09:49:20;7.33;;;6.60;;
8952;SDS011;4511;50.890;8.054;2023-11-18T09:51:58;7.27;;;6.57;;
8952;SDS011;4511;50.890;8.054;2023-11-18T09:54:31;10.07;;;7.47;;
8952;SDS011;4511;50.890;8.054;2023-11-18T09:57:07;8.23;;;6.80;;
8952;SDS011;4511;50.890;8.054;2023-11-18T09:59:42;7.00;;;6.30;;
8952;SDS011;4511;50.890;8.054;2023-11-18T10:02:19;8.57;;;6.60;;
8952;SDS011;4511;50.890;8.054;2023-11-18T10:04:49;9.30;;;6.47;;
8952;SDS011;4511;50.890;8.054;2023-11-18T10:07:22;11.73;;;7.03;;
8952;SDS011;4511;50.890;8.054;2023-11-18T10:09:52;9.03;;;6.60;;
8952;SDS011;4511;50.890;8.054;2023-11-18T10:12:22;6.60;;;6.00;;
8952;SDS011;4511;50.890;8.054;2023-11-18T10:14:51;7.73;;;6.20;;
8952;SDS011;4511;50.890;8.054;2023-11-18T10:17:22;5.80;;;5.30;;
8952;SDS011;4511;50.890;8.054;2023-11-18T10:20:03;6.30;;;5.70;;
8952;SDS011;4511;50.890;8.054;2023-11-18T10:22:37;6.10;;;5.40;;
8952;SDS011;4511;50.890;8.054;2023-11-18T10:25:05;6.10;;;5.50;;
8952;SDS011;4511;50.890;8.054;2023-11-18T10:27:33;6.97;;;5.90;;
8952;SDS011;4511;50.890;8.054;2023-11-18T10:30:01;6.50;;;5.80;;
8952;SDS011;4511;50.890;8.054;2023-11-18T10:32:29;6.43;;;5.83;;
8952;SDS011;4511;50.890;8.054;2023-11-18T10:35:00;7.30;;;6.20;;
8952;SDS011;4511;50.890;8.054;2023-11-18T10:37:30;8.30;;;6.50;;
8952;SDS011;4511;50.890;8.054;2023-11-18T10:39:57;7.27;;;6.27;;
8952;SDS011;4511;50.890;8.054;2023-11-18T10:42:25;7.17;;;6.00;;
8952;SDS011;4511;50.890;8.054;2023-11-18T10:44:55;6.97;;;6.20;;
8952;SDS011;4511;50.890;8.054;2023-11-18T10:47:23;6.40;;;5.80;;
8952;SDS011;4511;50.890;8.054;2023-11-18T10:49:51;9.77;;;6.27;;
8952;SDS011;4511;50.890;8.054;2023-11-18T10:52:22;6.70;;;5.90;;
8952;SDS011;4511;50.890;8.054;2023-11-18T10:54:51;7.23;;;6.53;;
8952;SDS011;4511;50.890;8.054;2023-11-18T10:57:19;9.63;;;7.17;;
8952;SDS011;4511;50.890;8.054;2023-11-18T10:59:57;8.23;;;6.83;;
8952;SDS011;4511;50.890;8.054;2023-11-18T11:02:25;7.33;;;6.40;;
8952;SDS011;4511;50.890;8.054;2023-11-18T11:04:59;9.67;;;6.70;;
8952;SDS011;4511;50.890;8.054;2023-11-18T11:07:28;8.53;;;7.17;;
8952;SDS011;4511;50.890;8.054;2023-11-18T11:09:57;8.70;;;7.10;;
8952;SDS011;4511;50.890;8.054;2023-11-18T11:12:25;8.50;;;7.23;;
8952;SDS011;4511;50.890;8.054;2023-11-18T11:14:56;9.07;;;6.83;;
8952;SDS011;4511;50.890;8.054;2023-11-18T11:17:27;10.73;;;7.17;;
8952;SDS011;4511;50.890;8.054;2023-11-18T11:19:59;8.63;;;7.67;;
8952;SDS011;4511;50.890;8.054;2023-11-18T11:22:40;11.83;;;7.77;;
8952;SDS011;4511;50.890;8.054;2023-11-18T11:25:19;8.93;;;7.47;;
8952;SDS011;4511;50.890;8.054;2023-11-18T11:27:54;10.67;;;7.90;;
8952;SDS011;4511;50.890;8.054;2023-11-18T11:30:28;9.33;;;7.93;;
8952;SDS011;4511;50.890;8.054;2023-11-18T11:33:00;10.80;;;8.10;;
8952;SDS011;4511;50.890;8.054;2023-11-18T11:35:37;10.33;;;8.33;;
8952;SDS011;4511;50.890;8.054;2023-11-18T11:38:11;11.43;;;8.77;;
8952;SDS011;4511;50.890;8.054;2023-11-18T11:40:39;9.87;;;8.40;;
8952;SDS011;4511;50.890;8.054;2023-11-18T11:43:08;9.87;;;7.97;;
8952;SDS011;4511;50.890;8.054;2023-11-18T11:45:36;9.83;;;8.17;;
8952;SDS011;4511;50.890;8.054;2023-11-18T11:48:06;10.70;;;8.07;;
8952;SDS011;4511;50.890;8.054;2023-11-18T11:50:44;11.60;;;8.30;;
8952;SDS011;4511;50.890;8.054;2023-11-18T11:53:31;10.33;;;8.37;;
8952;SDS011;4511;50.890;8.054;2023-11-18T11:56:04;10.20;;;8.63;;
8952;SDS011;4511;50.890;8.054;2023-11-18T11:58:33;11.67;;;8.93;;
8952;SDS011;4511;50.890;8.054;2023-11-18T12:01:02;7.53;;;6.73;;
8952;SDS011;4511;50.890;8.054;2023-11-18T12:03:43;9.50;;;7.57;;
8952;SDS011;4511;50.890;8.054;2023-11-18T12:06:13;9.47;;;7.30;;
8952;SDS011;4511;50.890;8.054;2023-11-18T12:08:49;9.63;;;7.67;;
8952;SDS011;4511;50.890;8.054;2023-11-18T12:11:18;10.37;;;8.20;;
8952;SDS011;4511;50.890;8.054;2023-11-18T12:13:59;9.27;;;7.50;;
8952;SDS011;4511;50.890;8.054;2023-11-18T12:19:29;11.07;;;7.83;;
8952;SDS011;4511;50.890;8.054;2023-11-18T12:21:57;10.10;;;8.10;;
8952;SDS011;4511;50.890;8.054;2023-11-18T12:24:27;12.50;;;8.50;;
8952;SDS011;4511;50.890;8.054;2023-11-18T12:26:58;10.30;;;8.50;;
8952;SDS011;4511;50.890;8.054;2023-11-18T12:29:31;11.07;;;8.77;;
8952;SDS011;4511;50.890;8.054;2023-11-18T12:31:59;11.70;;;8.87;;
8952;SDS011;4511;50.890;8.054;2023-11-18T12:43:38;12.10;;;8.90;;
8952;SDS011;4511;50.890;8.054;2023-11-18T12:46:25;11.20;;;8.53;;
8952;SDS011;4511;50.890;8.054;2023-11-18T12:49:13;12.43;;;9.10;;
8952;SDS011;4511;50.890;8.054;2023-11-18T12:51:41;10.80;;;8.27;;
8952;SDS011;4511;50.890;8.054;2023-11-18T12:54:09;12.23;;;8.23;;
8952;SDS011;4511;50.890;8.054;2023-11-18T12:56:38;11.30;;;8.17;;
8952;SDS011;4511;50.890;8.054;2023-11-18T12:59:06;11.73;;;8.43;;
8952;SDS011;4511;50.890;8.054;2023-11-18T13:01:34;11.50;;;8.67;;
8952;SDS011;4511;50.890;8.054;2023-11-18T13:04:02;11.93;;;8.57;;
8952;SDS011;4511;50.890;8.054;2023-11-18T13:06:29;11.03;;;8.30;;
8952;SDS011;4511;50.890;8.054;2023-11-18T13:08:56;12.20;;;8.40;;
8952;SDS011;4511;50.890;8.054;2023-11-18T13:11:23;11.40;;;8.53;;
8952;SDS011;4511;50.890;8.054;2023-11-18T13:13:50;13.33;;;9.10;;
8952;SDS011;4511;50.890;8.054;2023-11-18T13:16:19;10.73;;;8.30;;
8952;SDS011;4511;50.890;8.054;2023-11-18T13:18:47;9.50;;;8.17;;
8952;SDS011;4511;50.890;8.054;2023-11-18T13:21:15;11.23;;;8.30;;
8952;SDS011;4511;50.890;8.054;2023-11-18T13:23:44;8.50;;;7.00;;
8952;SDS011;4511;50.890;8.054;2023-11-18T13:26:13;10.17;;;7.97;;
8952;SDS011;4511;50.890;8.054;2023-11-18T13:28:40;10.93;;;8.07;;
8952;SDS011;4511;50.890;8.054;2023-11-18T13:31:08;10.13;;;7.70;;
8952;SDS011;4511;50.890;8.054;2023-11-18T13:33:38;12.43;;;8.17;;
8952;SDS011;4511;50.890;8.054;2023-11-18T13:36:05;10.40;;;8.50;;
8952;SDS011;4511;50.890;8.054;2023-11-18T13:38:35;8.90;;;7.13;;
8952;SDS011;4511;50.890;8.054;2023-11-18T13:41:02;9.70;;;7.07;;
8952;SDS011;4511;50.890;8.054;2023-11-18T13:43:40;9.10;;;7.17;;
8952;SDS011;4511;50.890;8.054;2023-11-18T13:46:09;9.00;;;7.47;;
8952;SDS011;4511;50.890;8.054;2023-11-18T13:48:39;7.67;;;6.67;;
8952;SDS011;4511;50.890;8.054;2023-11-18T13:51:06;7.70;;;6.33;;
8952;SDS011;4511;50.890;8.054;2023-11-18T13:53:37;8.80;;;6.60;;
8952;SDS011;4511;50.890;8.054;2023-11-18T13:56:05;6.80;;;6.10;;
8952;SDS011;4511;50.890;8.054;2023-11-18T13:58:34;6.00;;;5.47;;
8952;SDS011;4511;50.890;8.054;2023-11-18T14:01:04;6.97;;;5.83;;
8952;SDS011;4511;50.890;8.054;2023-11-18T14:03:31;6.70;;;5.80;;
8952;SDS011;4511;50.890;8.054;2023-11-18T14:05:59;7.90;;;5.90;;
8952;SDS011;4511;50.890;8.054;2023-11-18T14:08:27;6.00;;;5.10;;
8952;SDS011;4511;50.890;8.054;2023-11-18T14:10:54;6.23;;;5.63;;
8952;SDS011;4511;50.890;8.054;2023-11-18T14:13:21;8.23;;;5.73;;
8952;SDS011;4511;50.890;8.054;2023-11-18T14:15:48;7.37;;;6.20;;
8952;SDS011;4511;50.890;8.054;2023-11-18T14:18:20;7.17;;;6.40;;
8952;SDS011;4511;50.890;8.054;2023-11-18T14:20:47;6.10;;;5.50;;
8952;SDS011;4511;50.890;8.054;2023-11-18T14:23:16;5.90;;;5.30;;
8952;SDS011;4511;50.890;8.054;2023-11-18T14:25:43;9.13;;;7.90;;
8952;SDS011;4511;50.890;8.054;2023-11-18T14:28:10;6.73;;;5.40;;
8952;SDS011;4511;50.890;8.054;2023-11-18T14:30:38;6.37;;;5.77;;
8952;SDS011;4511;50.890;8.054;2023-11-18T14:33:05;6.37;;;5.77;;
8952;SDS011;4511;50.890;8.054;2023-11-18T14:35:32;7.33;;;5.80;;
8952;SDS011;4511;50.890;8.054;2023-11-18T14:37:59;5.57;;;5.07;;
8952;SDS011;4511;50.890;8.054;2023-11-18T14:40:27;5.63;;;5.10;;
8952;SDS011;4511;50.890;8.054;2023-11-18T14:42:54;8.00;;;5.33;;
8952;SDS011;4511;50.890;8.054;2023-11-18T14:45:21;6.17;;;5.57;;
8952;SDS011;4511;50.890;8.054;2023-11-18T14:47:48;5.87;;;5.37;;
8952;SDS011;4511;50.890;8.054;2023-11-18T14:50:18;6.73;;;5.40;;
8952;SDS011;4511;50.890;8.054;2023-11-18T14:52:45;5.40;;;4.90;;
8952;SDS011;4511;50.890;8.054;2023-11-18T14:55:13;6.83;;;5.87;;
8952;SDS011;4511;50.890;8.054;2023-11-18T14:57:43;5.93;;;5.33;;
8952;SDS011;4511;50.890;8.054;2023-11-18T15:00:12;7.70;;;6.20;;
8952;SDS011;4511;50.890;8.054;2023-11-18T15:02:46;6.90;;;5.53;;
8952;SDS011;4511;50.890;8.054;2023-11-18T15:05:13;6.90;;;6.20;;
8952;SDS011;4511;50.890;8.054;2023-11-18T15:07:44;6.63;;;5.37;;
8952;SDS011;4511;50.890;8.054;2023-11-18T15:10:13;8.40;;;6.07;;
8952;SDS011;4511;50.890;8.054;2023-11-18T15:12:46;7.67;;;6.17;;
8952;SDS011;4511;50.890;8.054;2023-11-18T15:15:13;9.20;;;6.90;;
8952;SDS011;4511;50.890;8.054;2023-11-18T15:17:44;8.57;;;6.87;;
8952;SDS011;4511;50.890;8.054;2023-11-18T15:20:11;7.37;;;6.30;;
8952;SDS011;4511;50.890;8.054;2023-11-18T15:22:39;7.17;;;6.47;;